Capron, Illinois
Current Conditions -  °F | °C
As of 5:45 AM on Sunday 21 Dec 2014 (Local Time) from KJVL Reporting Station
Haze Haze  
Wind Chill: 29°   Ceiling: 900
Heat Index: 34°   Visibility: 4mi
Dew Point: 30°   Wind: 6mph
Humidity: 87%   Direction: 160°SSE
Pressure: 30.15"   Gusts: NA
Location:  42.4°N, 88.74°W
Report Text: KJVL 211145Z 16005KT 4SM BR OVC009 01/M01 A3015 RMK FIRST
Loading
Personal Weather Stations






























Interactive Weather Map New forecast layout! Learn more

10-Day Weather Forecast

Advertisements
Track Severe Weather on mobile